Pottsville, Arkansas
Current Conditions -  °F | °C
As of 3:53 PM on Saturday 20 Dec 2014 (Local Time) from KRUE Reporting Station
Overcast Overcast  
Wind Chill: 47°   Ceiling: 2300
Heat Index: 47°   Visibility: 10mi
Dew Point: 38°   Wind: 0mph
Humidity: 71%   Direction: NA
Pressure: 30.21"   Gusts: NA
Location:  35.25°N, 93.05°W
Report Text: KRUE 202153Z AUTO 00000KT 10SM BKN023 OVC045 08/03 A3021 RMK AO2 SLP228 T00830033
Loading
Personal Weather Stations






























Interactive Weather Map New forecast layout! Learn more

10-Day Weather Forecast

Advertisements
Track Severe Weather on mobile